createdAt,value
2022-08-03T00:01:37.410Z,8.90
2022-08-03T00:04:08.129Z,13.73
2022-08-03T00:06:37.299Z,12.25
2022-08-03T00:09:08.178Z,8.98
2022-08-03T00:11:35.821Z,10.00
2022-08-03T00:14:05.599Z,6.93
2022-08-03T00:16:32.881Z,4.93
2022-08-03T00:19:00.824Z,6.00
2022-08-03T00:21:29.553Z,4.00
2022-08-03T00:23:56.675Z,8.65
2022-08-03T00:26:28.853Z,5.03
2022-08-03T00:28:55.887Z,8.95
2022-08-03T00:31:35.226Z,8.10
2022-08-03T00:34:10.043Z,10.95
2022-08-03T00:36:39.590Z,8.00
2022-08-03T00:39:06.621Z,12.45
2022-08-03T00:41:33.542Z,12.98
2022-08-03T00:44:01.570Z,7.97
2022-08-03T00:46:28.605Z,8.73
2022-08-03T00:49:04.911Z,8.85
2022-08-03T00:51:37.725Z,8.32
2022-08-03T00:54:08.663Z,7.85
2022-08-03T00:56:37.174Z,8.88
2022-08-03T00:59:04.844Z,6.95
2022-08-03T01:01:32.513Z,6.47
2022-08-03T01:04:00.058Z,9.63
2022-08-03T01:06:43.865Z,6.50
2022-08-03T01:10:04.090Z,8.63
2022-08-03T01:12:53.819Z,5.72
2022-08-03T01:15:48.398Z,3.72
2022-08-03T01:18:26.042Z,9.55
2022-08-03T01:20:57.626Z,8.05
2022-08-03T01:24:05.856Z,7.10
2022-08-03T01:27:03.305Z,6.25
2022-08-03T01:29:52.745Z,5.53
2022-08-03T01:33:01.851Z,6.32
2022-08-03T01:35:40.927Z,8.73
2022-08-03T01:38:18.649Z,7.55
2022-08-03T01:40:47.928Z,7.93
2022-08-03T01:43:58.901Z,8.10
2022-08-03T01:46:07.781Z,5.88
2022-08-03T01:48:38.505Z,6.35
2022-08-03T01:51:08.319Z,7.00
2022-08-03T01:53:37.699Z,6.63
2022-08-03T01:56:06.825Z,6.05
2022-08-03T01:58:36.819Z,6.68
2022-08-03T02:01:13.605Z,6.65
2022-08-03T02:04:00.071Z,6.25
2022-08-03T02:07:02.231Z,9.85
2022-08-03T02:09:21.369Z,9.15
2022-08-03T02:11:51.507Z,5.05
2022-08-03T02:14:20.380Z,8.43
2022-08-03T02:16:49.456Z,8.65
2022-08-03T02:19:18.392Z,6.22
2022-08-03T02:21:57.139Z,9.55
2022-08-03T02:24:29.541Z,9.52
2022-08-03T02:26:57.501Z,4.85
2022-08-03T02:29:39.103Z,8.80
2022-08-03T02:32:15.056Z,7.70
2022-08-03T02:34:46.665Z,8.00
2022-08-03T02:37:15.192Z,8.50
2022-08-03T02:40:06.207Z,6.95
2022-08-03T02:42:45.539Z,7.32
2022-08-03T02:45:16.917Z,8.40
2022-08-03T02:47:53.972Z,6.32
2022-08-03T02:50:24.181Z,8.40
2022-08-03T02:52:53.609Z,8.52
2022-08-03T02:55:23.226Z,8.02
2022-08-03T02:57:51.268Z,11.27
2022-08-03T03:00:27.628Z,6.07
2022-08-03T03:03:00.916Z,6.85
2022-08-03T03:05:52.318Z,9.10
2022-08-03T03:08:22.925Z,4.75
2022-08-03T03:10:57.198Z,4.68
2022-08-03T03:13:24.883Z,5.03
2022-08-03T03:15:53.023Z,6.50
2022-08-03T03:18:22.744Z,4.72
2022-08-03T03:20:52.696Z,6.03
2022-08-03T03:23:22.675Z,6.55
2022-08-03T03:25:50.371Z,6.43
2022-08-03T03:28:17.671Z,8.60
2022-08-03T03:30:45.199Z,9.57
2022-08-03T03:33:21.673Z,6.57
2022-08-03T03:35:49.559Z,7.47
2022-08-03T03:38:16.587Z,6.22
2022-08-03T03:40:44.359Z,5.18
2022-08-03T03:43:13.008Z,6.32
2022-08-03T03:45:51.643Z,5.25
2022-08-03T03:48:19.342Z,8.65
2022-08-03T03:50:46.989Z,8.43
2022-08-03T03:53:14.842Z,5.05
2022-08-03T03:55:59.209Z,6.97
2022-08-03T03:58:32.091Z,9.13
2022-08-03T04:01:00.191Z,8.57
2022-08-03T04:03:27.762Z,4.70
2022-08-03T04:06:13.539Z,7.22
2022-08-03T04:08:59.512Z,5.53
2022-08-03T04:11:39.637Z,8.50
2022-08-03T04:14:30.928Z,9.70
2022-08-03T04:17:06.161Z,6.95
2022-08-03T04:19:38.890Z,7.82
2022-08-03T04:22:10.855Z,11.40
2022-08-03T04:24:51.442Z,6.50
2022-08-03T04:27:25.855Z,7.53
2022-08-03T04:29:55.564Z,7.50
2022-08-03T04:32:26.317Z,10.98
2022-08-03T04:34:53.822Z,6.00
2022-08-03T04:37:43.225Z,6.97
2022-08-03T04:40:30.630Z,6.95
2022-08-03T04:43:00.034Z,8.45
2022-08-03T04:45:31.890Z,9.00
2022-08-03T04:47:59.680Z,7.57
2022-08-03T04:50:37.015Z,8.75
2022-08-03T04:53:07.172Z,10.63
2022-08-03T04:55:35.403Z,9.85
2022-08-03T04:58:04.390Z,11.20
2022-08-03T05:00:31.363Z,11.93
2022-08-03T05:02:58.616Z,9.25
2022-08-03T05:05:25.667Z,10.10
2022-08-03T05:08:05.280Z,9.00
2022-08-03T05:10:38.099Z,8.95
2022-08-03T05:13:05.423Z,8.48
2022-08-03T05:15:32.363Z,10.48
2022-08-03T05:17:59.287Z,8.85
2022-08-03T05:20:26.464Z,13.55
2022-08-03T05:22:53.439Z,14.80
2022-08-03T05:25:23.356Z,10.95
2022-08-03T05:27:54.106Z,14.95
2022-08-03T05:30:31.499Z,9.35
2022-08-03T05:33:04.616Z,9.18
2022-08-03T05:35:57.365Z,13.70
2022-08-03T05:38:24.121Z,12.40
2022-08-03T05:41:22.765Z,10.98
2022-08-03T05:43:47.055Z,12.75
2022-08-03T05:46:35.744Z,9.90
2022-08-03T05:49:13.735Z,14.73
2022-08-03T05:51:40.773Z,11.75
2022-08-03T05:54:07.710Z,13.98
2022-08-03T05:56:34.672Z,9.35
2022-08-03T05:59:11.560Z,10.27
2022-08-03T06:01:48.931Z,13.88
2022-08-03T06:04:15.863Z,15.77
2022-08-03T06:06:43.442Z,11.95
2022-08-03T06:09:10.788Z,13.90
2022-08-03T06:11:39.096Z,9.43
2022-08-03T06:14:06.500Z,12.07
2022-08-03T06:16:33.719Z,14.95
2022-08-03T06:19:00.737Z,11.43
2022-08-03T06:21:27.941Z,8.27
2022-08-03T06:23:55.697Z,12.48
2022-08-03T06:26:25.380Z,9.02
2022-08-03T06:28:54.282Z,13.85
2022-08-03T06:31:32.838Z,14.40
2022-08-03T06:34:32.733Z,18.30
2022-08-03T06:36:52.429Z,12.45
2022-08-03T06:39:20.187Z,12.38
2022-08-03T06:41:47.211Z,16.70
2022-08-03T06:44:14.298Z,13.55
2022-08-03T06:46:42.306Z,14.70
2022-08-03T06:49:09.411Z,13.23
2022-08-03T06:52:04.147Z,21.05
2022-08-03T06:54:24.558Z,17.50
2022-08-03T06:56:51.936Z,18.55
2022-08-03T07:00:08.499Z,15.65
2022-08-03T07:02:09.759Z,12.90
2022-08-03T07:04:37.064Z,12.52
2022-08-03T07:07:04.022Z,16.10
2022-08-03T07:09:31.073Z,15.45
2022-08-03T07:11:58.832Z,15.68
2022-08-03T07:14:25.896Z,10.95
2022-08-03T07:16:52.833Z,18.38
2022-08-03T07:19:19.760Z,13.23
2022-08-03T07:21:47.301Z,18.60
2022-08-03T07:24:14.583Z,11.20
2022-08-03T07:26:41.657Z,12.20
2022-08-03T07:29:15.143Z,8.43
2022-08-03T07:31:42.576Z,14.93
2022-08-03T07:34:09.724Z,12.15
2022-08-03T07:36:36.717Z,12.15
2022-08-03T07:39:16.519Z,10.95
2022-08-03T07:41:45.604Z,13.60
2022-08-03T07:44:12.689Z,13.05
2022-08-03T07:46:39.634Z,8.57
2022-08-03T07:49:06.803Z,12.95
2022-08-03T07:51:33.799Z,14.32
2022-08-03T07:54:01.327Z,8.57
2022-08-03T07:56:28.918Z,14.43
2022-08-03T07:58:56.591Z,13.52
2022-08-03T08:01:24.501Z,13.18
2022-08-03T08:03:52.699Z,11.07
2022-08-03T08:06:20.335Z,8.40
2022-08-03T08:08:47.519Z,12.55
2022-08-03T08:11:14.860Z,11.15
2022-08-03T08:13:41.831Z,17.35
2022-08-03T08:16:08.759Z,10.65
2022-08-03T08:18:35.764Z,14.02
2022-08-03T08:21:03.496Z,11.63
2022-08-03T08:23:42.273Z,11.90
2022-08-03T08:26:10.954Z,11.40
2022-08-03T08:28:37.952Z,13.48
2022-08-03T08:31:05.161Z,13.93
2022-08-03T08:34:01.337Z,11.27
2022-08-03T08:36:21.510Z,15.48
2022-08-03T08:38:48.705Z,13.52
2022-08-03T08:41:16.433Z,13.90
2022-08-03T08:43:44.084Z,16.45
2022-08-03T08:46:23.355Z,14.93
2022-08-03T08:48:53.109Z,10.50
2022-08-03T08:51:21.972Z,14.38
2022-08-03T08:53:53.679Z,8.98
2022-08-03T08:56:25.351Z,17.52
2022-08-03T08:59:01.161Z,13.68
2022-08-03T09:01:28.587Z,13.52
2022-08-03T09:03:55.875Z,17.52
2022-08-03T09:06:24.013Z,10.90
2022-08-03T09:08:51.021Z,12.88
2022-08-03T09:11:51.716Z,14.30
2022-08-03T09:14:11.335Z,9.18
2022-08-03T09:17:02.159Z,10.15
2022-08-03T09:19:31.375Z,14.80
2022-08-03T09:22:10.934Z,11.52
2022-08-03T09:24:41.588Z,9.20
2022-08-03T09:27:13.570Z,8.77
2022-08-03T09:29:40.611Z,9.98
2022-08-03T09:32:07.679Z,12.27
2022-08-03T09:34:34.811Z,9.05
2022-08-03T09:37:01.781Z,14.95
2022-08-03T09:39:40.782Z,10.25
2022-08-03T09:42:11.137Z,8.82
2022-08-03T09:44:46.941Z,11.93
2022-08-03T09:47:17.428Z,10.85
2022-08-03T09:50:06.103Z,10.70
2022-08-03T09:52:52.071Z,8.18
2022-08-03T09:56:34.643Z,8.07
2022-08-03T09:58:10.871Z,7.10
2022-08-03T10:01:04.282Z,7.20
2022-08-03T10:03:36.099Z,9.32
2022-08-03T10:06:23.062Z,14.32
2022-08-03T10:09:25.237Z,7.43
2022-08-03T10:11:52.778Z,10.18
2022-08-03T10:14:20.308Z,9.20
2022-08-03T10:16:48.370Z,8.10
2022-08-03T10:19:16.578Z,8.45
2022-08-03T10:21:51.386Z,7.43
2022-08-03T10:24:27.399Z,6.38
2022-08-03T10:27:07.155Z,8.60
2022-08-03T10:29:45.926Z,6.13
2022-08-03T10:32:31.823Z,11.30
2022-08-03T10:35:20.501Z,6.30
2022-08-03T10:37:59.723Z,6.65
2022-08-03T10:40:47.994Z,6.93
2022-08-03T10:43:30.901Z,8.25
2022-08-03T10:45:58.979Z,8.18
2022-08-03T10:48:26.715Z,8.88
2022-08-03T10:50:53.929Z,5.80
2022-08-03T10:53:47.738Z,8.57
2022-08-03T10:56:54.323Z,6.43
2022-08-03T10:59:46.460Z,9.10
2022-08-03T11:02:14.947Z,4.45
2022-08-03T11:04:42.963Z,6.55
2022-08-03T11:07:25.708Z,6.53
2022-08-03T11:09:55.548Z,8.07
2022-08-03T11:12:32.203Z,6.63
2022-08-03T11:15:07.780Z,9.52
2022-08-03T11:17:46.820Z,5.35
2022-08-03T11:21:00.335Z,8.07
2022-08-03T11:24:02.850Z,3.67
2022-08-03T11:26:33.002Z,5.38
2022-08-03T11:29:30.309Z,4.40
2022-08-03T11:31:57.756Z,4.78
2022-08-03T11:34:25.064Z,5.18
2022-08-03T11:37:26.359Z,8.73
2022-08-03T11:39:56.994Z,3.47
2022-08-03T11:42:27.574Z,5.10
2022-08-03T11:44:57.374Z,8.65
2022-08-03T11:47:29.967Z,7.05
2022-08-03T11:50:02.152Z,7.30
2022-08-03T11:52:38.248Z,5.38
2022-08-03T11:55:11.231Z,3.25
2022-08-03T11:59:12.828Z,5.07
2022-08-03T12:00:32.284Z,3.35
2022-08-03T12:03:13.618Z,5.97
2022-08-03T12:05:53.606Z,4.35
2022-08-03T12:08:27.830Z,6.47
2022-08-03T12:10:57.276Z,9.13
2022-08-03T12:14:26.826Z,5.80
2022-08-03T12:16:19.621Z,7.60
2022-08-03T12:19:01.850Z,12.05
2022-08-03T12:21:30.245Z,6.32
2022-08-03T12:24:03.743Z,7.80
2022-08-03T12:26:52.244Z,4.43
2022-08-03T12:29:27.227Z,8.38
2022-08-03T12:31:56.153Z,2.78
2022-08-03T12:34:23.332Z,5.05
2022-08-03T12:37:00.078Z,4.15
2022-08-03T12:39:30.960Z,5.45
2022-08-03T12:41:58.182Z,6.20
2022-08-03T12:44:35.944Z,4.07
2022-08-03T12:47:06.876Z,8.32
2022-08-03T12:49:52.514Z,4.20
2022-08-03T12:52:22.347Z,6.63
2022-08-03T12:54:57.327Z,6.22
2022-08-03T12:57:25.025Z,5.32
2022-08-03T12:59:55.887Z,6.90
2022-08-03T13:02:27.293Z,6.45
2022-08-03T13:04:54.982Z,6.25
2022-08-03T13:07:23.313Z,7.57
2022-08-03T13:09:55.411Z,5.53
2022-08-03T13:12:28.667Z,3.05
2022-08-03T13:14:58.661Z,4.55
2022-08-03T13:17:27.226Z,5.72
2022-08-03T13:19:54.939Z,3.63
2022-08-03T13:22:30.842Z,4.38
2022-08-03T13:24:58.269Z,3.58
2022-08-03T13:28:04.230Z,5.70
2022-08-03T13:30:13.949Z,4.95
2022-08-03T13:32:49.673Z,4.63
2022-08-03T13:35:20.092Z,7.03
2022-08-03T13:37:47.756Z,6.15
2022-08-03T13:40:15.967Z,8.27
2022-08-03T13:42:44.034Z,3.90
2022-08-03T13:45:11.525Z,5.15
2022-08-03T13:47:41.181Z,8.48
2022-08-03T13:50:08.438Z,5.25
2022-08-03T13:52:36.533Z,8.07
2022-08-03T13:55:06.700Z,2.28
2022-08-03T13:58:02.873Z,4.05
2022-08-03T14:00:29.003Z,6.38
2022-08-03T14:03:05.348Z,4.78
2022-08-03T14:05:38.731Z,8.32
2022-08-03T14:08:07.425Z,6.40
2022-08-03T14:10:40.755Z,7.68
2022-08-03T14:13:08.608Z,7.70
2022-08-03T14:15:37.666Z,3.65
2022-08-03T14:18:15.726Z,6.22
2022-08-03T14:20:50.195Z,5.28
2022-08-03T14:23:19.273Z,4.93
2022-08-03T14:25:51.460Z,5.30
2022-08-03T14:28:24.698Z,7.72
2022-08-03T14:30:53.799Z,4.40
2022-08-03T14:33:20.928Z,2.42
2022-08-03T14:35:48.961Z,3.97
2022-08-03T14:38:16.573Z,2.42
2022-08-03T14:40:44.423Z,5.07
2022-08-03T14:43:11.361Z,3.20
2022-08-03T14:45:40.232Z,3.53
2022-08-03T14:50:32.161Z,3.92
2022-08-03T14:50:55.348Z,3.13
2022-08-03T14:53:22.607Z,4.88
2022-08-03T14:55:51.923Z,5.70
2022-08-03T14:58:25.228Z,3.10
2022-08-03T15:00:55.941Z,6.13
2022-08-03T15:03:24.962Z,6.00
2022-08-03T15:05:56.846Z,2.35
2022-08-03T15:08:25.717Z,4.30
2022-08-03T15:10:54.400Z,4.13
2022-08-03T15:13:21.509Z,2.20
2022-08-03T15:15:49.771Z,5.13
2022-08-03T15:18:16.786Z,3.70
2022-08-03T15:20:45.806Z,9.13
2022-08-03T15:23:14.785Z,3.42
2022-08-03T15:26:31.583Z,3.85
2022-08-03T15:28:30.555Z,4.20
2022-08-03T15:30:57.520Z,3.30
2022-08-03T15:33:24.470Z,4.43
2022-08-03T15:35:51.760Z,5.80
2022-08-03T15:38:18.872Z,3.53
2022-08-03T15:40:45.927Z,2.42
2022-08-03T15:43:12.855Z,6.15
2022-08-03T15:45:40.657Z,6.10
2022-08-03T15:48:09.172Z,4.30
2022-08-03T15:50:36.235Z,5.25
2022-08-03T15:53:03.835Z,4.20
2022-08-03T15:55:31.504Z,4.63
2022-08-03T15:58:59.573Z,3.58
2022-08-03T16:00:45.580Z,3.97
2022-08-03T16:03:12.521Z,3.40
2022-08-03T16:05:39.588Z,5.80
2022-08-03T16:08:11.675Z,1.88
2022-08-03T16:10:40.689Z,4.10
2022-08-03T16:13:08.256Z,3.42
2022-08-03T16:15:38.396Z,6.07
2022-08-03T16:18:07.035Z,6.10
2022-08-03T16:20:35.295Z,4.00
2022-08-03T16:23:10.809Z,2.80
2022-08-03T16:25:40.484Z,3.58
2022-08-03T16:28:13.612Z,3.70
2022-08-03T16:30:43.786Z,3.08
2022-08-03T16:33:17.296Z,4.03
2022-08-03T16:35:46.854Z,3.15
2022-08-03T16:38:18.349Z,3.88
2022-08-03T16:40:51.558Z,5.70
2022-08-03T16:43:20.454Z,3.28
2022-08-03T16:45:51.024Z,4.70
2022-08-03T16:48:19.077Z,4.85
2022-08-03T16:50:46.234Z,3.30
2022-08-03T16:53:16.746Z,2.65
2022-08-03T16:55:53.817Z,4.40
2022-08-03T16:58:41.421Z,4.85
2022-08-03T17:01:22.194Z,2.08
2022-08-03T17:04:02.341Z,3.08
2022-08-03T17:06:35.336Z,5.75
2022-08-03T17:09:08.967Z,8.38
2022-08-03T17:11:47.078Z,4.75
2022-08-03T17:14:17.163Z,2.58
2022-08-03T17:16:52.403Z,4.72
2022-08-03T17:19:47.250Z,4.32
2022-08-03T17:22:19.391Z,3.50
2022-08-03T17:24:52.378Z,2.72
2022-08-03T17:28:50.747Z,6.80
2022-08-03T17:30:15.886Z,1.83
2022-08-03T17:32:56.947Z,5.35
2022-08-03T17:35:36.479Z,3.53
2022-08-03T17:38:11.908Z,4.15
2022-08-03T17:40:48.229Z,3.58
2022-08-03T17:44:12.709Z,7.07
2022-08-03T17:46:07.316Z,6.28
2022-08-03T17:48:41.569Z,6.90
2022-08-03T17:51:20.465Z,5.45
2022-08-03T17:54:06.053Z,19.23
2022-08-03T17:57:22.484Z,10.48
2022-08-03T18:00:27.187Z,9.68
2022-08-03T18:03:16.153Z,9.90
2022-08-03T18:06:10.540Z,13.23
2022-08-03T18:08:48.669Z,15.70
2022-08-03T18:11:21.792Z,9.68
2022-08-03T18:17:55.217Z,10.18
2022-08-03T18:20:33.134Z,12.25
2022-08-03T18:23:07.975Z,12.35
2022-08-03T18:25:45.162Z,11.05
2022-08-03T18:28:18.834Z,13.68
2022-08-03T18:30:53.037Z,11.15
2022-08-03T18:34:20.338Z,17.35
2022-08-03T18:36:22.012Z,13.25
2022-08-03T18:38:59.846Z,10.40
2022-08-03T18:41:32.099Z,10.93
2022-08-03T18:44:07.862Z,12.65
2022-08-03T18:47:01.544Z,9.07
2022-08-03T18:50:12.012Z,9.00
2022-08-03T18:53:15.677Z,13.18
2022-08-03T18:56:02.329Z,9.85
2022-08-03T18:58:52.426Z,10.23
2022-08-03T19:02:00.882Z,8.93
2022-08-03T19:05:06.466Z,13.23
2022-08-03T19:07:36.510Z,9.80
2022-08-03T19:10:11.100Z,12.02
2022-08-03T19:12:51.612Z,11.27
2022-08-03T19:15:36.429Z,10.27
2022-08-03T19:18:08.839Z,10.13
2022-08-03T19:20:38.303Z,8.00
2022-08-03T19:23:06.649Z,8.88
2022-08-03T19:25:40.256Z,9.02
2022-08-03T19:28:08.850Z,10.00
2022-08-03T19:30:40.161Z,9.60
2022-08-03T19:33:11.239Z,11.10
2022-08-03T19:35:57.459Z,12.07
2022-08-03T19:38:27.453Z,10.32
2022-08-03T19:41:02.464Z,9.55
2022-08-03T19:43:52.654Z,7.32
2022-08-03T19:46:30.061Z,8.45
2022-08-03T19:49:15.178Z,7.40
2022-08-03T19:54:53.840Z,11.80
2022-08-03T19:57:25.588Z,9.13
2022-08-03T19:59:56.189Z,9.80
2022-08-03T20:02:26.579Z,9.52
2022-08-03T20:04:56.549Z,10.05
2022-08-03T20:07:27.874Z,11.38
2022-08-03T20:09:56.465Z,13.07
2022-08-03T20:12:27.559Z,8.93
2022-08-03T20:14:59.881Z,5.75
2022-08-03T20:17:55.500Z,6.72
2022-08-03T20:20:25.422Z,10.43
2022-08-03T20:22:59.564Z,15.48
2022-08-03T20:25:57.413Z,10.68
2022-08-03T20:28:50.379Z,12.65
2022-08-03T20:31:21.623Z,8.23
2022-08-03T20:33:50.931Z,13.93
2022-08-03T20:36:19.088Z,11.05
2022-08-03T20:38:48.175Z,9.80
2022-08-03T20:41:17.169Z,9.23
2022-08-03T20:43:45.372Z,7.18
2022-08-03T20:46:31.963Z,8.13
2022-08-03T20:49:04.709Z,8.45
2022-08-03T20:51:49.566Z,9.27
2022-08-03T20:54:29.134Z,11.23
2022-08-03T20:57:00.214Z,7.60
2022-08-03T20:59:47.145Z,10.38
2022-08-03T21:02:30.365Z,10.10
2022-08-03T21:05:08.529Z,8.63
2022-08-03T21:08:06.920Z,15.77
2022-08-03T21:10:42.210Z,10.88
2022-08-03T21:13:03.089Z,9.05
2022-08-03T21:13:05.226Z,15.02
2022-08-03T21:16:06.701Z,6.38
2022-08-03T21:18:57.918Z,7.38
2022-08-03T21:21:30.993Z,7.75
2022-08-03T21:24:00.715Z,7.40
2022-08-03T21:26:32.541Z,9.90
2022-08-03T21:29:03.594Z,7.60
2022-08-03T21:31:30.603Z,12.35
2022-08-03T21:34:04.858Z,9.23
2022-08-03T21:36:35.776Z,12.18
2022-08-03T21:39:07.231Z,11.52
2022-08-03T21:41:35.996Z,11.02
2022-08-03T21:44:07.410Z,17.60
2022-08-03T21:46:37.277Z,7.45
2022-08-03T21:50:07.750Z,13.20
2022-08-03T21:51:59.741Z,13.82
2022-08-03T21:54:38.793Z,10.73
2022-08-03T21:57:20.536Z,11.95
2022-08-03T21:59:54.841Z,14.15
2022-08-03T22:02:32.238Z,12.05
2022-08-03T22:05:05.218Z,7.63
2022-08-03T22:07:33.968Z,11.02
2022-08-03T22:10:05.018Z,10.02
2022-08-03T22:12:32.705Z,9.05
2022-08-03T22:15:02.545Z,6.57
2022-08-03T22:17:55.787Z,12.23
2022-08-03T22:20:21.352Z,10.25
2022-08-03T22:22:56.088Z,8.00
2022-08-03T22:25:32.827Z,6.03
2022-08-03T22:28:10.033Z,8.90
2022-08-03T22:30:38.789Z,8.68
2022-08-03T22:33:11.182Z,8.52
2022-08-03T22:35:51.628Z,10.13
2022-08-03T22:38:19.039Z,9.02
2022-08-03T22:40:49.817Z,9.70
2022-08-03T22:43:17.540Z,10.45
2022-08-03T22:46:09.248Z,8.25
2022-08-03T22:48:40.657Z,5.20
2022-08-03T22:51:09.155Z,10.35
2022-08-03T22:53:37.266Z,7.03
2022-08-03T22:56:04.573Z,9.68
2022-08-03T22:58:31.500Z,6.97
2022-08-03T23:01:06.413Z,8.77
2022-08-03T23:04:00.616Z,8.40
2022-08-03T23:06:40.785Z,9.32
2022-08-03T23:09:13.656Z,8.10
2022-08-03T23:11:45.967Z,12.05
2022-08-03T23:14:15.879Z,11.45
2022-08-03T23:16:45.367Z,8.98
2022-08-03T23:19:17.402Z,8.05
2022-08-03T23:22:03.599Z,6.45
2022-08-03T23:24:38.639Z,12.57
2022-08-03T23:27:08.121Z,9.68
2022-08-03T23:29:42.960Z,16.85
2022-08-03T23:32:12.329Z,15.85
2022-08-03T23:34:58.785Z,10.50
2022-08-03T23:37:26.929Z,16.35
2022-08-03T23:39:57.082Z,8.70
2022-08-03T23:42:24.343Z,9.27
2022-08-03T23:44:58.329Z,9.52
2022-08-03T23:47:46.910Z,9.85
2022-08-03T23:50:15.243Z,9.45
2022-08-03T23:53:03.346Z,8.90
2022-08-03T23:55:51.177Z,11.07
2022-08-03T23:58:51.524Z,11.40
